Wallis Run, Pennsylvania
Current Conditions -  °F | °C
As of 10:54 AM on Thursday 30 Oct 2014 (Local Time) from KIPT Reporting Station
Overcast Overcast  
Wind Chill: 50°   Ceiling: 4100
Heat Index: 50°   Visibility: 10mi
Dew Point: 36°   Wind: 10mph
Humidity: 59%   Direction: 310°NW
Pressure: 30.05"   Gusts: NA
Location:  41.4223°N, 76.9976°W
Report Text: KIPT 301454Z 31009KT 10SM OVC041 10/02 A3005 RMK AO2 SLP178 T01000022 51008
Loading
Personal Weather Stations






























Interactive Weather Map
Tropical Storm Tracking
New forecast layout! Learn more

10-Day Weather Forecast

Advertisements
Track Severe Weather on mobile